Kmdw taf.

Oct 7, 2023 · TAF for: KAVP (Wilkes-Barre/Scranto, PA, US) issued at 1355 UTC 07 Oct 2023: Text: KAVP 071355Z 0714/0812 27004KT 6SM RA BR SCT004 OVC035 : Forecast period: 1400 to 1500 UTC 07 October 2023: Forecast type: FROM: standard forecast or significant change: Winds: from the W (270 degrees) at 5 MPH (4 knots; 2.1 m/s) Visibility: 6 sm ( 10 km) Ceiling ...

Kmdw taf. Things To Know About Kmdw taf.

METAR Chicago Midway International Airport - KMDW/MDW. Chicago Midway International Airport is a large airport in Illinois, United States. The airport is located at latitude 41.78594 and longitude -87.75253. The airport has 5 runways: 13C/31C, 4R/22L, 4L/22R, 13L/31R and 13R/31L.Impacts TAF Board. TAF Home. Plot. Data. Board. Info. For situational awareness. Not to be used for flight planning purposes. IDs: KMDW - Chicago/Midway Intl, IL, US. Issued at 0251 UTC 13 Nov 2022. Updated at 0321 UTC 13 Nov 2022. Potential Impact: None: Slight: Moderate: High: Time 0253Z 13/04Z 13/05Z 13/06Z 13/07Z 13/08ZBURLINGTON FLIGHT SERVICE STATION. NOTAMs facility: CEF (NOTAM-D service available) Attendance: SAT-SUN 0900-1700, ALL MON-FRI 0800-2300. Pattern altitude: RECTANGULAR TFC PAT: 1000 FT AGL LGT ACFT, 2000 FT AGL LRG/HVY ACFT; OVHD: 2500 FT AGL. Wind indicator: yes.METAR KMLI 152055Z 25006KT 1/2SM SN FZFG BKN008 OVC014 M05/M06 A2957 RMK A02 PRESFR SLP023 P0000 60000 T10501056 53017 · METAR KMDW 152045Z 23009KT 7/8SM -SN ...Study with Quizlet and memorize flashcards containing terms like What is meant by the term 'dewpoint'?, When the phrase "light and variable" is used in reference to a winds-aloft forecast, the coded group and wind-speed is, What is the valid period for the TAF for KMEM? KMEM 1217207Z 1218/1318 20012KT 5SM HZ BKN030 FM122200 33015G20KT P6SM BKN015 OVC025 PROB40 1222/1302 3SM SHRA FM130200 ...

kmdw: taf: 2023/10/05: 10:30 utc: noaa: taf amd kmdw 051028z 0510/0612 22005 kt 6 sm-ra br sct 025 o vc 035 tempo 0510/0513 3 sm-ra br sct 015 bkn 025 fm 051300 24006 kt p6 sm sct 015 bkn 050 tempo 0513/0517 5 sm-ra br sct 010 bkn 015 fm 060300 30008 kt p6 sm sct 070 METAR KMDW 310653Z 30004KT 10SM BKN250 M01/M03 A2994 RMK AO2 SLP150 T10111033 : December 30, 2022: Time Code Weather Temp. Visibility …Sep 10, 2023 · Chicago Midway International Airport is a large airport in Illinois, United States. The airport is located at latitude 41.78594 and longitude -87.75253. The airport has 5 runways: 13C/31C, 4R/22L, 4L/22R, 13L/31R and 13R/31L. The ICAO airport code of this field is KMDW.

data at: 2133 utc 24 sep 2023. kmdw 242053z 10009kt 10sm few100 bkn180 bkn250 24/15 a2999 rmk ao2 slp151 t02440150 56010 $ kmdw 242051z 2421/2524 10008kt p6sm few100 sct200 fm250300 09009kt p6sm vcsh sct080 bkn200 fm250600 11005kt p6sm few060 bkn100 fm252000 07009kt p6sm bkn090NOTE: LAMP data beyond the time of the TAF data is denoted as LAMP in Type and colored magenta. Raw TAF. KMDW 292057Z 2921/3024 13007KT P6SM FEW030. Raw METAR. KMDW 292053Z 13006KT 10SM BKN030 23/16 A3011 RMK AO2 SLP190 T02330161 58004. KMDW 291953Z 10004KT 10SM FEW030 23/15 A3011 RMK AO2 SLP189 T02330150.

METAR for: KMDW (Chicago/Midway Intl, IL, US) Text: KMDW 171253Z 24014KT 7SM -SN OVC011 M01/M04 A3014 RMK AO2 SLP219 P0000 T10111039 $ Temperature:Sep 27, 2023 · TAF ; NOTAM ; History ; Airport ; Statistics ... KMDW B) 2309261157 E) MDW RWY 13C/31C CLSD CANCELED September 26, 2023 06:57 - September 29, 2023 06:57 LT ... TAMPA. FL. US. 27.97. -82.53. 2. ADDS Station Table (full) Page loaded: 07:48 UTC | 12:48 AM Pacific | 01:48 AM Mountain | 02:48 AM Central | 03:48 AM Eastern. Aviation Weather Center Homepage provides comprehensive user-friendly aviation weather Text products and graphics. METAR for: KMDW (Chicago/Midway Intl, IL, US) Text: KMDW 061053Z 26008KT 10SM CLR 11/04 A2996 RMK AO2 SLP141 T01060044: Temperature: 10.6°C ( 51°F)NOTE: LAMP data beyond the time of the TAF data is denoted as LAMP in Type and colored magenta. Raw TAF KMDW 200312Z 2003/2106 16009KT P6SM SCT080 OVC100 FM200800 20008KT P6SM SCT080 BKN200 TEMPO 2008/2012 6SM SHRA BKN070 FM202200 16007KT P6SM BKN200 METAR Board Radar Display Forecast Discussion

KMDW - Chicago/Midway Intl, IL, US Issued at 1120 UTC 11 Oct 2023 Updated at 1129 UTC 11 Oct 2023 Potential Impact None Slight Moderate High NOTE: LAMP data beyond the time of the TAF data is denoted as LAMP in Type and colored magenta. Raw TAF KMDW 111120Z 1112/1218 23005KT P6SM SCT100 FM112200 13006KT 6SM -SHRA SCT030 BKN050

Refer to Figure 17.) Determine the wind and temperature aloft forecast for DEN at 9,000 feet. 230° true at 21 knots, temperature -4 °C. When speaking to a flight service weather briefer, you should state. whether the flight is VFR or IFR. Refer to Figure 15.) The only cloud type forecast in TAF reports is.

10000 feet AGL. Clouds: few clouds at 5000 feet AGL, broken clouds at 10000 feet AGL. TAF for: KMDW (Chicago/Midway Intl, IL, US) issued at 1130 UTC 22 Sep 2023. Text: KMDW 221130Z 2212/2318 14005KT P6SM -SHRA SCT070 OVC100. Forecast period: 1200 to 1600 UTC 22 September 2023.KMDW - Chicago/Midway Intl, IL, US. ... Raw TAF KMDW 082055Z 0821/0924 30008KT P6SM SCT050 BKN080 BKN150 FM091600 30012G18KT P6SM FEW050 METAR Board Radar Display ...METAR text: KCLE 130751Z 00000KT 10SM BKN140 11/08 A3001 RMK AO2 SLP178 T01060078: Conditions at: KCLE (CLEVELAND , OH, US) observed 0751 UTC 13 October 2023Current Weather/Notams (Metars, TAFs, Notams, NWS Forecast, PIREPS, and nearby weather). Customs Information Send updates to [email protected]. Phone 773 ...Study with Quizlet and memorize flashcards containing terms like A ceiling is defined as the hight of the, The station originating the following weather report has a field elevation of 1300 ft MSL. From the bottom of the overcast cloud layer, what is its thickness? (tops of OVC are reported at 3800 ft) SPECI KOKC 2228Z 28024G36KT 3/4SM BKN008 OVC020 28/23 A3000, the reporting station ...METAR KMSP 122253Z 08018G27KT 10SM -RA OVC055 12/04 A2988 RMK AO2 PK WND 07027/2251 SLP123 P0000 T01170044. Current weather is light rain.The wind is from direction 080° with a speed of 18 kt. Visibility is 10 mi. The ceiling, broken or more, is 5,500 ft. The temperature and wind chill are 12 °C.

AVIATION WEATHER CENTER. This site is changing on October 16, 2023. Preview the new site at Beta.AviationWeather.gov. SCN23-79: Upgrade of Aviation Weather Center Website. TAFs.METAR Home. Plot. Data. Board. Info. IDs: Format: Raw Decoded Include TAF. Data at: 0542 UTC 09 Oct 2023. KMDW 090453Z 32004KT 10SM CLR 08/03 A2985 RMK AO2 SLP110 T00830028. KMDW 090353Z 32003KT 10SM FEW070 FEW160 09/03 A2986 RMK AO2 SLP114 T00890033. METAR KMDW 310653Z 30004KT 10SM BKN250 M01/M03 A2994 RMK AO2 SLP150 T10111033 : December 30, 2022: Time Code Weather Temp. Visibility Ceiling Wind METAR/SPECI; 23:53Oct 11, 2023 · TAF KADW 250100Z 2501/2607 16006KT 9999 -SHRA SCT050 BKN150 QNH2988INS. Forecast period: 0100 to 0200 UTC 25 August 2023. Forecast type: FROM: standard forecast or significant change. Winds: from the SSE (160 degrees) at 7 MPH (6 knots; 3.1 m/s) Visibility: 6 or more sm (10+ km) kfok 181353z 00000kt 10sm -ra ovc017 19/18 a2983 rmk ao2 cig 009v022 slp101 p0001 t01890183 no taf found for ... kmdw 181353z 36006kt 10sm few030 few065 17/12 a3007 rmk ao2 slp179 t01720122 ...Chicago Midway International Airport is a large airport in Illinois, United States. The airport is located at latitude 41.78594 and longitude -87.75253. The airport …

Dec 31, 2022 · View the flying weather (METAR and TAF) for Chicago Midway International Airport, Chicago, United States ... METAR KMDW 312253Z 11006KT 10SM SCT065 BKN095 BKN120 ... TAF ; NOTAM ; History ; Airport ; Statistics ... KMDW B) 2309261157 E) MDW RWY 13C/31C CLSD CANCELED September 26, 2023 06:57 - September 29, 2023 06:57 LT ...

What are the current conditions depicted for Chicago Midway Airport (KMDW)? -METAR KINK 12185z 11012G18KT 15SM SKC 25/17 A3000. -METAR KBOI 121854z 13004KT 30SM SCT150 17/6 A3015. -METAR KLAX 121852z 25004KT 6SM BR SCT007 SCT250 16/15 A2991. -SPECI KMDW 121856z 32005KT 1 1/2SM RA OVC007 17/16 A2980 RMK RAB35.taf; kmdw 19nm ne : 100255z 1003/1106 28007kt p6sm sct060 bkn100 fm101600 28012g20kt p6sm bkn060 fm102300 33006kt p6sm sct060 kdpa 20nm n :METAR Chicago Midway International Airport - KMDW/MDW . Chicago Midway International Airport is a large airport in Illinois, United States. The airport is …Raw TAF. KMDW 180540Z 1806/1912 34005KT P6SM SCT050. FM182000 11006KT P6SM SCT060. Raw METAR. KMDW 180753Z 30004KT 10SM FEW030 FEW060 13/11 A3003 RMK AO2 SLP165 T01280111 $. KMDW 180653Z 31005KT 10SM FEW030 FEW060 13/12 A3003 RMK AO2 SLP167 T01330117 $. FM100000 29007KT P6SM BKN230. Page loaded: 15:40 UTC | 08:40 AM Pacific | 09:40 AM Mountain | 10:40 AM Central | 11:40 AM Eastern. Aviation Weather Center Homepage …A. aircraft identification or the pilot's name B. true airspeed C. fuel on board. 3528-1. when speaking to an AFSS weather briefer, you should state. A. PIC's full name & address B. summary of qualifications. C. whether the flight is VFR or IFR. Study Chapter 7 flashcards. data at: 2133 utc 24 sep 2023. kmdw 242053z 10009kt 10sm few100 bkn180 bkn250 24/15 a2999 rmk ao2 slp151 t02440150 56010 $ kmdw 242051z 2421/2524 10008kt p6sm few100 sct200 fm250300 09009kt p6sm vcsh sct080 bkn200 fm250600 11005kt p6sm few060 bkn100 fm252000 07009kt p6sm bkn090NOTE: LAMP data beyond the time of the TAF data is denoted as LAMP in Type and colored magenta. Raw TAF KMDW 181451Z 1815/1918 02005KT P6SM FEW050 SCT250 KMDW 181451Z 1815/

TAF Text Data. TAF Home. Plot. Data. Board. Info. IDs: Format: Raw Decoded Include METAR Data at: 1017 UTC 22 Sep 2023. KMDW 220953Z 00000KT 10SM BKN080 BKN100 19/18 A3017 RMK AO2 SLP210 T01890178 $ KMDW 220856Z 2209/2312 09006KT P6SM VCSH SCT070 OVC100 TEMPO 2209/2210 4SM -SHRA SCT035 BKN050 …

TAF Message type : TAF-routine or TAF AMD-amended forecast, METAR-hourly, SPECI-special or TESTM-non-commissioned ASOS report METAR KPIT ICAO location indicator KPIT 091730Z Issuance time: ALL times in UTC “Z”, 2-digit date, 4-digit time 091955Z 091818 Valid period: 2-digit date, 2-digit beginning, 2-digit ending times

Aviation Routine Weather Report (METAR) – Private and Instrument METAR KMDW ... Terminal Aerodrome Forecast (TAF) – Private and Instrument W36 The terminal ...METAR Chicago O'hare International Airport - KORD/ORD. Chicago O'hare International Airport is a large airport in Illinois, United States. The airport is located at latitude 41.97728 and longitude -87.90784. The airport has 8 runways: 10L/28R, 9R/27L, 9C/27C, 4R/22L, 4L/22R, 9L/27R, 10C/28C and 10R/28L. The ICAO airport code of this …NOTE: LAMP data beyond the time of the TAF data is denoted as LAMP in Type and colored magenta. Raw TAF. KMDW 292057Z 2921/3024 13007KT P6SM FEW030. Raw METAR. KMDW 292053Z 13006KT 10SM BKN030 23/16 A3011 RMK AO2 SLP190 T02330161 58004. KMDW 291953Z 10004KT 10SM FEW030 23/15 A3011 RMK AO2 SLP189 T02330150. METAR TAF : Current weather observation and Forecast, Chicago Midway International Airport Illinois United States. Satellite images. 10-day forecasts. ... TAF: KMDW 211728Z 2118/2224 09008KT P6SM VCSH SCT060 OVC100 TEMPO 2118/2122 5SM -SHRA SCT040 BKN070 FM220000 09005KT P6SM VCSH SCT060 BKN100 PROB30 …Refer to Figure 17.) Determine the wind and temperature aloft forecast for DEN at 9,000 feet. 230° true at 21 knots, temperature -4 °C. When speaking to a flight service weather briefer, you should state. whether the flight is VFR or IFR. Refer to Figure 15.) The only cloud type forecast in TAF reports is. The remarks section for KMDW has RAB35 listed. This entry means... -METAR KINK 12185z 11012G18KT 15SM SKC 25/17 A3000. -METAR KBOI 121854z 13004KT 30SM SCT150 17/6 A3015. -METAR KLAX 121852z 25004KT 6SM BR SCT007 SCT250 16/15 A2991. -SPECI KMDW 121856z 32005KT 1 1/2SM RA OVC007 17/16 A2980 RMK …NOTE: LAMP data beyond the time of the TAF data is denoted as LAMP in Type and colored magenta. Raw TAF KMDW 190540Z 1906/2012 16005KT P6SM SCT100 BKN250 FM191100 19008KT 6SM -SHRA SCT050 OVC080 TEMPO 1914/1918 4SM RA BR SCT030 BKN050 FM191900 15012G20KT P6SM SCT070 OVC100 FM200000 14008KT P6SM BKN080 FM200800 20008KT P6SM SCT080 BKN250 METAR Board Radar Display Forecast Discussion

AVIATION WEATHER CENTER SCN23-79: Upgrade of Aviation Weather Center Website METAR Data METAR Home Plot Data Board Info IDs: Format: Raw Decoded Include TAF Data at: 0455 UTC 09 Oct 2023 Page loaded: 04:55 UTC | 09:55 PM Pacific | 10:55 PM Mountain | 11:55 PM Central | 12:55 AM EasternCHICAGO MIDWAY AIRPORT, IL, United States (KMDW) 41-47N 087-45W 188M. Oct 05, 2023 - 06:33 AM EDT / 2023.10.05 1033 UTC. Wind: from the SSW (210 degrees) at 7 MPH (6 KT):0. Visibility: 6 mile (s):0. Sky conditions: overcast. Weather: light rain; mist. Precipitation last hour: 0.04 inches.data at: 2236 utc 18 dec 2022. kmdw 182153z 26012g20kt 10sm few020 m07/m12 a3020 rmk ao2 slp246 t10671122 $ kmdw 182053z 25013kt 10sm few022 m06/m12 a3018 rmk ao2 slp236 t10611117 53013 $ kmdw 181953z 25013kt 10sm few022 m07/m12 a3015 rmk ao2 slp228 t10671122 $ kmdw 181853z 25015g20kt 10sm few020 few095 m07/m12 a3014 …KMDW - Chicago/Midway Intl, IL, US. Issued at 0530 UTC 05 Jul 2023. Updated at 0806 UTC 05 Jul 2023. Potential Impact: None: Slight: Moderate: High: Time 0753Z 05/09Z 05/10Z 05/11Z 05/12Z 05/13Z ... NOTE: LAMP data beyond the time of the TAF data is denoted as LAMP in Type and colored magenta.Instagram:https://instagram. dollar7ea engine code chevyyork beach me tide chartmagic nails indiana pasec scores yesterday METAR TAF : Current weather observation and Forecast, Chicago Midway International Airport Illinois United States. Satellite images. 10-day forecasts. Climate. ... METAR: KMDW 050753Z 22008KT 3SM RA BR BKN036 BKN065 OVC090 19/18 A2995 RMK AO2 RAE14B33 SLP132 P0014 T01940178 $ Time: 03:53 (08:53 UTC) wrmj aledo obituarieshotschedules login employee hot schedule login Aviation Routine Weather Report (METAR) – Private and Instrument METAR KMDW ... Terminal Aerodrome Forecast (TAF) – Private and Instrument W36 The terminal ... petland buford Click image to open ZAU Weather Briefing. A color coded graphic which displays ceiling, visibility, precipitation, and wind data beginning with the latest observation and continuing out 12 hours using data from the latest TAF. Runway cross wind, head wind, and tail wind values based on the latest observation and the latest TAF (looking out 12 ...Oct 10, 2023 · METAR Chicago Midway International Airport - KMDW/MDW. Chicago Midway International Airport is a large airport in Illinois, United States. The airport is located at latitude 41.78594 and longitude -87.75253. The airport has 5 runways: 13C/31C, 4R/22L, 4L/22R, 13L/31R and 13R/31L. METAR Chicago Midway International Airport - KMDW/MDW. Chicago Midway International Airport is a large airport in Illinois, United States. The airport is located at latitude 41.78594 and longitude -87.75253. The airport has 5 runways: 13C/31C, 4R/22L, 4L/22R, 13L/31R and 13R/31L.